LFBP/PUF METAR and TAF weather

Enter ICAO airport designator
Station Type Date Time Source
LFBP METAR 2020/09/23 03:00 UTC NOAA

LFBP 230300Z AUTO 16002KT CAVOK 14/13 Q1011 TEMPO 0800 FG VV///


Station Type Date Time Source
LFBP Decoded METAR 2020/09/23 03:00 UTC NOAA

Pau, France (LFBP) 43-23N 000-25W 185M
Sep 22, 2020 - 11:00 PM EDT / 2020.09.23 0300 UTC
Wind: from the SSE (160 degrees) at 2 MPH (2 KT):0
Visibility: greater than 7 mile(s):0
Temperature: 57 F (14 C)
Dew Point: 55 F (13 C)
Relative Humidity: 93%
Pressure (altimeter): 29.85 in. Hg (1011 hPa)
ob: LFBP 230300Z AUTO 16002KT CAVOK 14/13 Q1011 TEMPO 0800 FG VV///
cycle: 3

Station Type Date Time Source
LFBP TAF 2020/09/22 18:21 UTC NOAA

TAF LFBP 221700Z 2218/2318 VRB02KT 9999 SCT038 BKN060 PROB40 2300/2309 3000 BR NSC PROB30 2303/2307 0800 FG VV///
BECMG 2312/2314 30010KT
TEMPO 2315/2318 -RA BKN060TCU

Example: see airport list